Forside
METAR-TAF:

METAR-TAF

Lufthavne :

Oskemen, Kasakhstan

Breddekreds: 50-02-10N, længdekreds: 082-29-39E, højde: 286 m

Aktuelle vejr

Denne rapport blev lavet for 35 minutter siden, kl. 19:00 UTC
Vind 2 kt fra varierende retninger
Temperatur 16°C
Fugtighed 100%
Tryk 1009 hPa
Sigt 10 km eller mere
Nogle få skyer i en højde af 9300 ft

METAR: UASK 221900Z VRB01MPS 9999 FEW093 16/16 Q1009 NOSIG RMK QFE731/0975

Tid: 01:35 (19:35 UTC)

Vejrudsigter

Denne rapport blev lavet for 2 timer og 33 minutter siden, kl. 17:02 UTC
Foreløbig gælder fra 22 på 18 UTC til 23 på 03 UTC
Vind 6 kt fra vestnordvest
Sigt 10 km eller mere
Brudte skyer i en højde af 7000 ft
Midlertidig
fra 22 på 18 UTC til 22 på 21 UTC
Nogle få skyer i en højde af 400 ft
Midlertidig
fra 22 på 21 UTC til 23 på 01 UTC
Vind 6 kt fra øst
Sigt: 0200 m
Brudte skyer i en højde af 200 ft
tåge,

TAF: UASK 221702Z 2218/2303 29003MPS 9999 BKN070 TEMPO 2218/2221 04003MPBPKOUUUPBR FEW004 TEMPO 2221/2301 08003MPS 0200 FG BKN002

Vejrobservationer og prognoser fra mere end 4000 lufthavne (METAR og TAF).

De gule og røde prikker repræsenterer de meteorologiske stationer.

Flyt musen over at se navnet på stationen.

Så klik over at se vejr observationer og prognoser.

At skifte det kort: Klik på de grønne knapper med et sort kors for at zoome ind; på den grønne knap med en bindestreg for at zoome ud; eller på de grønne pile for tilstødende kort.


METAR-TAF: